Time;durP1;ratioP1;P1;durP2;ratioP2;P2;SDS_P1;SDS_P2;PMS_P1;PMS_P2;Temp;Humidity;BMP_temperature;BMP_pressure;BME280_temperature;BME280_humidity;BME280_pressure;Samples;Min_cycle;Max_cycle;Signal;HPM_P1;HPM_P2
2022/06/12 00:00:07;;;;;;;10.77;2.85;;;;;;;;;;5039447;28;20029;-77
2022/06/12 00:02:33;;;;;;;16.65;3.05;;;;;;;;;;5031341;28;20088;-77
2022/06/12 00:05:00;;;;;;;16.35;2.83;;;;;;;;;;5037776;28;20394;-77
2022/06/12 00:07:26;;;;;;;16.45;2.65;;;;;;;;;;5034065;28;20033;-77
2022/06/12 00:09:52;;;;;;;18.42;3.65;;;;;;;;;;5034898;28;20489;-77
2022/06/12 00:12:18;;;;;;;13.65;3.38;;;;;;;;;;5032838;28;20029;-76
2022/06/12 00:14:44;;;;;;;12.80;3.45;;;;;;;;;;5041585;28;20029;-76
2022/06/12 00:17:10;;;;;;;15.75;2.90;;;;;;;;;;5038951;28;20230;-77
2022/06/12 00:19:37;;;;;;;13.95;3.25;;;;;;;;;;5039490;28;20029;-76
2022/06/12 00:22:04;;;;;;;11.23;2.65;;;;;;;;;;5035682;28;20029;-77
2022/06/12 00:24:30;;;;;;;16.75;3.22;;;;;;;;;;5027172;28;20017;-77
2022/06/12 00:26:58;;;;;;;17.05;3.00;;;;;;;;;;5028745;28;20018;-77
2022/06/12 00:29:23;;;;;;;17.73;3.00;;;;;;;;;;5031711;28;20110;-76
2022/06/12 00:32:04;;;;;;;17.27;3.65;;;;;;;;;;5030295;28;20025;-76
2022/06/12 00:34:32;;;;;;;19.00;2.95;;;;;;;;;;5036244;28;20026;-77
2022/06/12 00:36:58;;;;;;;11.43;2.78;;;;;;;;;;5050881;28;20046;-76
2022/06/12 00:39:25;;;;;;;14.52;2.80;;;;;;;;;;5039207;28;20030;-76
2022/06/12 00:41:52;;;;;;;10.07;2.90;;;;;;;;;;5026600;28;20289;-76
2022/06/12 00:44:19;;;;;;;15.93;2.90;;;;;;;;;;5031449;28;20552;-76
2022/06/12 00:46:48;;;;;;;11.82;2.72;;;;;;;;;;5035988;28;20368;-76
2022/06/12 00:49:20;;;;;;;16.52;3.47;;;;;;;;;;5038959;28;20103;-76
2022/06/12 00:51:48;;;;;;;10.57;3.20;;;;;;;;;;5027324;28;20045;-76
2022/06/12 00:54:15;;;;;;;15.00;3.15;;;;;;;;;;5036978;28;20021;-76
2022/06/12 00:56:47;;;;;;;12.20;2.67;;;;;;;;;;5029818;28;20038;-76
2022/06/12 00:59:16;;;;;;;12.02;3.45;;;;;;;;;;5032295;28;20025;-76
2022/06/12 01:01:45;;;;;;;14.07;3.65;;;;;;;;;;5033423;28;20029;-77
2022/06/12 01:06:58;;;;;;;15.10;3.55;;;;;;;;;;5038796;28;20170;-77
2022/06/12 01:09:28;;;;;;;9.55;3.05;;;;;;;;;;5038995;28;20029;-77
2022/06/12 01:11:55;;;;;;;13.17;3.97;;;;;;;;;;5027252;28;20038;-78
2022/06/12 01:14:23;;;;;;;16.83;3.40;;;;;;;;;;5035376;28;20023;-77
2022/06/12 01:16:51;;;;;;;16.52;3.53;;;;;;;;;;5032902;28;20064;-78
2022/06/12 01:19:36;;;;;;;14.55;3.55;;;;;;;;;;5038653;28;20017;-77
2022/06/12 01:22:24;;;;;;;16.13;3.58;;;;;;;;;;5029494;28;20168;-79
2022/06/12 01:25:00;;;;;;;20.17;3.20;;;;;;;;;;5035593;28;20502;-77
2022/06/12 01:27:45;;;;;;;17.90;4.20;;;;;;;;;;5036048;28;20021;-76
2022/06/12 01:30:41;;;;;;;20.40;4.20;;;;;;;;;;5037656;28;20030;-77
2022/06/12 01:33:07;;;;;;;16.70;3.28;;;;;;;;;;5022544;28;20116;-76
2022/06/12 01:35:41;;;;;;;17.02;4.40;;;;;;;;;;5038490;28;20116;-76
2022/06/12 01:38:09;;;;;;;19.33;3.50;;;;;;;;;;5030705;28;20033;-75
2022/06/12 01:41:01;;;;;;;24.75;4.32;;;;;;;;;;5031389;28;20086;-75
2022/06/12 01:43:46;;;;;;;25.13;4.68;;;;;;;;;;5031361;28;20045;-75
2022/06/12 01:46:41;;;;;;;13.98;3.63;;;;;;;;;;5025898;28;20082;-77
2022/06/12 01:49:18;;;;;;;26.63;3.80;;;;;;;;;;4997897;28;20192;-76
2022/06/12 01:51:47;;;;;;;21.02;5.07;;;;;;;;;;5017463;28;20029;-77
2022/06/12 01:54:13;;;;;;;20.23;4.45;;;;;;;;;;5034221;28;20029;-76
2022/06/12 01:56:39;;;;;;;25.77;5.40;;;;;;;;;;5030161;28;20041;-76
2022/06/12 01:59:08;;;;;;;20.98;4.47;;;;;;;;;;5032029;28;20099;-76
2022/06/12 02:01:53;;;;;;;25.27;4.28;;;;;;;;;;5030361;28;20040;-77
2022/06/12 02:04:25;;;;;;;26.45;3.80;;;;;;;;;;5034934;28;20036;-77
2022/06/12 02:07:03;;;;;;;30.73;6.18;;;;;;;;;;5031009;28;20036;-75
2022/06/12 02:09:33;;;;;;;20.00;3.80;;;;;;;;;;5033519;28;20033;-76
2022/06/12 02:14:51;;;;;;;22.80;5.03;;;;;;;;;;5035988;28;20185;-77
2022/06/12 02:17:20;;;;;;;25.95;4.85;;;;;;;;;;5029800;28;20861;-76
2022/06/12 02:19:47;;;;;;;15.27;3.78;;;;;;;;;;5027483;28;20048;-77
2022/06/12 02:22:19;;;;;;;15.85;4.65;;;;;;;;;;5032710;28;20056;-77
2022/06/12 02:24:47;;;;;;;29.23;4.65;;;;;;;;;;5035489;28;20021;-77
2022/06/12 02:27:18;;;;;;;23.83;5.32;;;;;;;;;;5026526;28;21500;-78
2022/06/12 02:29:49;;;;;;;20.70;4.20;;;;;;;;;;5028208;28;20026;-78
2022/06/12 02:32:35;;;;;;;21.13;4.45;;;;;;;;;;5027521;28;20116;-77
2022/06/12 02:35:04;;;;;;;20.92;5.35;;;;;;;;;;5033302;28;20034;-77
2022/06/12 02:37:34;;;;;;;23.02;7.20;;;;;;;;;;5031780;28;20033;-77
2022/06/12 02:40:03;;;;;;;43.85;7.38;;;;;;;;;;5028821;28;20124;-76
2022/06/12 02:42:33;;;;;;;22.17;4.93;;;;;;;;;;5028526;28;20032;-77
2022/06/12 02:45:04;;;;;;;23.40;5.07;;;;;;;;;;5033948;28;20017;-78
2022/06/12 02:47:32;;;;;;;23.35;5.20;;;;;;;;;;5029080;28;20093;-77
2022/06/12 02:49:58;;;;;;;28.25;6.32;;;;;;;;;;5036889;28;20489;-78
2022/06/12 02:52:43;;;;;;;31.38;5.47;;;;;;;;;;5026616;28;20036;-77
2022/06/12 02:55:28;;;;;;;17.50;5.10;;;;;;;;;;5032037;28;20028;-76
2022/06/12 02:58:03;;;;;;;27.75;6.00;;;;;;;;;;5028881;28;20029;-76
2022/06/12 03:00:29;;;;;;;22.42;5.57;;;;;;;;;;5026117;28;20069;-76
2022/06/12 03:02:58;;;;;;;31.58;6.90;;;;;;;;;;5028959;28;20229;-76
2022/06/12 03:05:29;;;;;;;25.67;6.00;;;;;;;;;;5030868;28;20082;-77
2022/06/12 03:08:07;;;;;;;23.75;5.88;;;;;;;;;;5034077;28;20025;-76
2022/06/12 03:10:34;;;;;;;30.13;6.05;;;;;;;;;;5025771;28;20422;-76
2022/06/12 03:13:01;;;;;;;30.83;6.18;;;;;;;;;;5030407;28;20028;-76
2022/06/12 03:15:29;;;;;;;28.17;5.68;;;;;;;;;;5032511;28;20029;-75
2022/06/12 03:17:56;;;;;;;26.38;6.35;;;;;;;;;;5021456;28;20491;-75
2022/06/12 03:20:25;;;;;;;24.50;7.10;;;;;;;;;;5049924;28;20124;-76
2022/06/12 03:22:59;;;;;;;25.70;6.72;;;;;;;;;;5032009;28;20038;-78
2022/06/12 03:25:28;;;;;;;30.30;7.85;;;;;;;;;;5032468;28;20021;-77
2022/06/12 03:28:03;;;;;;;34.35;7.53;;;;;;;;;;5029647;28;20460;-77
2022/06/12 03:30:33;;;;;;;33.13;6.32;;;;;;;;;;5034864;28;20031;-78
2022/06/12 03:33:00;;;;;;;28.08;6.70;;;;;;;;;;5032357;28;20514;-77
2022/06/12 03:35:50;;;;;;;28.30;6.32;;;;;;;;;;5030443;28;20351;-78
2022/06/12 03:38:22;;;;;;;19.30;5.43;;;;;;;;;;5033559;28;20095;-77
2022/06/12 03:41:00;;;;;;;34.95;6.85;;;;;;;;;;5035982;28;20499;-77
2022/06/12 03:43:38;;;;;;;28.48;6.28;;;;;;;;;;5054429;28;20026;-77
2022/06/12 03:46:14;;;;;;;28.95;6.38;;;;;;;;;;5036607;28;21476;-77
2022/06/12 03:48:43;;;;;;;32.33;7.63;;;;;;;;;;5038411;28;20037;-77
2022/06/12 03:51:25;;;;;;;27.30;6.90;;;;;;;;;;5035605;28;20030;-77
2022/06/12 03:53:57;;;;;;;27.63;6.70;;;;;;;;;;5032537;28;20044;-77
2022/06/12 03:59:35;;;;;;;27.45;6.82;;;;;;;;;;5040769;28;20040;-75
2022/06/12 04:02:02;;;;;;;23.15;6.50;;;;;;;;;;5032866;28;20040;-77
2022/06/12 04:04:30;;;;;;;28.90;6.55;;;;;;;;;;5032996;28;20045;-77
2022/06/12 04:06:59;;;;;;;31.30;7.32;;;;;;;;;;5039228;28;20112;-76
2022/06/12 04:09:26;;;;;;;38.35;7.60;;;;;;;;;;5043309;28;20017;-77
2022/06/12 04:11:55;;;;;;;23.27;7.63;;;;;;;;;;5033541;28;20033;-76
2022/06/12 04:14:22;;;;;;;38.78;7.90;;;;;;;;;;5037976;28;20464;-76
2022/06/12 04:16:50;;;;;;;28.08;7.40;;;;;;;;;;5044345;28;20034;-77
2022/06/12 04:19:18;;;;;;;33.92;7.22;;;;;;;;;;5039825;28;20029;-76
2022/06/12 04:21:49;;;;;;;30.42;6.88;;;;;;;;;;5031956;28;20032;-77
2022/06/12 04:24:15;;;;;;;31.50;7.55;;;;;;;;;;5050748;28;20120;-77
2022/06/12 04:26:48;;;;;;;26.83;6.88;;;;;;;;;;5034995;28;20116;-75
2022/06/12 04:29:14;;;;;;;23.92;6.35;;;;;;;;;;5034981;28;20051;-76
2022/06/12 04:31:42;;;;;;;26.13;5.63;;;;;;;;;;5036140;28;20048;-77
2022/06/12 04:34:14;;;;;;;26.85;6.25;;;;;;;;;;5032057;28;20029;-77
2022/06/12 04:36:40;;;;;;;25.23;7.50;;;;;;;;;;5030529;28;20033;-77
2022/06/12 04:39:07;;;;;;;24.92;4.72;;;;;;;;;;5032876;28;20489;-78
2022/06/12 04:41:35;;;;;;;20.85;5.40;;;;;;;;;;5043038;28;20101;-76
2022/06/12 04:44:02;;;;;;;29.77;5.82;;;;;;;;;;5032522;28;20029;-76
2022/06/12 04:46:28;;;;;;;23.17;5.20;;;;;;;;;;5036109;28;20048;-77
2022/06/12 04:48:55;;;;;;;22.40;5.00;;;;;;;;;;5018060;28;20045;-75
2022/06/12 04:51:22;;;;;;;26.15;5.57;;;;;;;;;;5028109;28;20053;-76
2022/06/12 04:53:48;;;;;;;24.75;5.40;;;;;;;;;;5035494;28;20032;-76
2022/06/12 04:56:15;;;;;;;18.90;4.40;;;;;;;;;;5031212;28;20060;-75
2022/06/12 04:58:42;;;;;;;25.30;5.93;;;;;;;;;;5034706;28;20486;-75
2022/06/12 05:01:08;;;;;;;23.35;4.95;;;;;;;;;;5030168;28;20033;-75
2022/06/12 05:03:34;;;;;;;25.65;5.63;;;;;;;;;;5038680;28;20087;-76
2022/06/12 05:06:01;;;;;;;23.88;4.40;;;;;;;;;;5033482;28;20282;-76
2022/06/12 05:08:27;;;;;;;20.58;5.40;;;;;;;;;;5042027;28;20106;-75
2022/06/12 05:10:53;;;;;;;24.00;6.20;;;;;;;;;;5029082;28;20100;-77
2022/06/12 05:13:20;;;;;;;21.48;4.95;;;;;;;;;;5031662;28;20028;-76
2022/06/12 05:15:46;;;;;;;20.13;4.80;;;;;;;;;;5032934;28;20025;-76
2022/06/12 05:18:14;;;;;;;17.67;4.75;;;;;;;;;;5034295;28;20044;-76
2022/06/12 05:20:40;;;;;;;21.63;4.60;;;;;;;;;;5031065;28;20506;-77
2022/06/12 05:23:06;;;;;;;19.92;5.45;;;;;;;;;;5032666;28;20044;-76
2022/06/12 05:25:33;;;;;;;20.48;5.22;;;;;;;;;;5036112;28;20041;-77
2022/06/12 05:28:00;;;;;;;20.15;4.88;;;;;;;;;;5025227;28;20033;-75
2022/06/12 05:30:28;;;;;;;23.63;5.25;;;;;;;;;;5030299;28;20532;-77
2022/06/12 05:32:55;;;;;;;20.90;4.70;;;;;;;;;;5032433;28;20035;-76
2022/06/12 05:35:22;;;;;;;21.17;4.72;;;;;;;;;;5038544;28;20569;-76
2022/06/12 05:37:49;;;;;;;20.42;4.28;;;;;;;;;;5037030;28;20100;-77
2022/06/12 05:40:20;;;;;;;25.73;5.53;;;;;;;;;;5028548;28;20045;-75
2022/06/12 05:42:46;;;;;;;18.23;4.53;;;;;;;;;;5029700;28;20035;-74
2022/06/12 05:45:14;;;;;;;19.92;4.95;;;;;;;;;;5039485;28;20036;-74
2022/06/12 05:48:06;;;;;;;25.60;4.88;;;;;;;;;;5035300;28;20029;-75
2022/06/12 05:50:34;;;;;;;22.35;4.35;;;;;;;;;;5035182;28;20037;-75
2022/06/12 05:53:00;;;;;;;18.13;4.15;;;;;;;;;;5025994;28;20025;-75
2022/06/12 05:55:27;;;;;;;16.50;4.00;;;;;;;;;;5033865;28;20648;-75
2022/06/12 05:57:53;;;;;;;20.40;4.55;;;;;;;;;;5043928;28;20037;-75
2022/06/12 06:00:23;;;;;;;20.45;4.70;;;;;;;;;;5032353;28;20453;-75
2022/06/12 06:02:49;;;;;;;17.83;3.70;;;;;;;;;;5034475;28;20140;-76
2022/06/12 06:05:15;;;;;;;21.92;4.95;;;;;;;;;;5052832;28;20069;-75
2022/06/12 06:07:42;;;;;;;16.60;3.95;;;;;;;;;;5027610;28;20036;-76
2022/06/12 06:10:10;;;;;;;17.88;4.00;;;;;;;;;;5035215;28;20025;-76
2022/06/12 06:12:36;;;;;;;21.85;3.65;;;;;;;;;;5026876;28;20041;-76
2022/06/12 06:15:02;;;;;;;19.77;4.30;;;;;;;;;;5038448;28;20087;-75
2022/06/12 06:17:28;;;;;;;17.52;4.32;;;;;;;;;;5028848;28;20063;-75
2022/06/12 06:19:54;;;;;;;14.40;3.78;;;;;;;;;;5030098;28;20053;-75
2022/06/12 06:22:20;;;;;;;17.83;5.38;;;;;;;;;;5041464;28;20033;-75
2022/06/12 06:24:47;;;;;;;17.27;4.28;;;;;;;;;;5030487;28;20079;-77
2022/06/12 06:27:14;;;;;;;17.02;4.20;;;;;;;;;;5030838;28;20112;-75
2022/06/12 06:29:40;;;;;;;24.17;4.93;;;;;;;;;;5030742;28;20048;-74
2022/06/12 06:32:08;;;;;;;19.98;4.15;;;;;;;;;;5028325;28;20112;-75
2022/06/12 06:34:34;;;;;;;14.85;3.70;;;;;;;;;;5029560;28;20064;-75
2022/06/12 06:37:00;;;;;;;18.02;4.45;;;;;;;;;;5028024;28;20021;-74
2022/06/12 06:39:26;;;;;;;24.42;5.35;;;;;;;;;;5031075;28;20061;-74
2022/06/12 06:41:52;;;;;;;20.63;4.10;;;;;;;;;;5030987;28;20029;-75
2022/06/12 06:47:05;;;;;;;12.27;3.50;;;;;;;;;;5001812;28;20042;-74
2022/06/12 06:49:31;;;;;;;16.33;3.83;;;;;;;;;;5024401;28;20057;-74
2022/06/12 06:51:57;;;;;;;15.55;3.92;;;;;;;;;;5032899;28;20039;-74
2022/06/12 06:54:23;;;;;;;14.02;3.45;;;;;;;;;;5023767;28;20451;-74
2022/06/12 06:56:49;;;;;;;18.77;3.88;;;;;;;;;;5025399;28;20044;-74
2022/06/12 06:59:16;;;;;;;14.40;3.70;;;;;;;;;;5032646;28;20459;-74
2022/06/12 07:01:42;;;;;;;18.58;4.63;;;;;;;;;;5031678;28;20042;-74
2022/06/12 07:04:08;;;;;;;16.42;3.88;;;;;;;;;;5035459;28;20376;-74
2022/06/12 07:06:34;;;;;;;18.77;3.88;;;;;;;;;;5031850;28;20115;-75
2022/06/12 07:09:00;;;;;;;11.48;3.15;;;;;;;;;;5029929;28;20029;-75
2022/06/12 07:11:26;;;;;;;13.45;3.50;;;;;;;;;;5027229;28;20037;-76
2022/06/12 07:13:53;;;;;;;15.82;3.67;;;;;;;;;;5029135;28;20056;-76
2022/06/12 07:16:20;;;;;;;10.70;2.70;;;;;;;;;;5018051;28;20060;-74
2022/06/12 07:18:46;;;;;;;18.48;3.70;;;;;;;;;;5027007;28;20041;-74
2022/06/12 07:21:14;;;;;;;15.55;3.35;;;;;;;;;;5023542;28;20037;-75
2022/06/12 07:23:41;;;;;;;11.27;3.22;;;;;;;;;;5022162;28;20196;-74
2022/06/12 07:26:09;;;;;;;12.13;3.47;;;;;;;;;;5042782;28;20045;-75
2022/06/12 07:28:36;;;;;;;12.05;2.92;;;;;;;;;;5032670;28;20105;-74
2022/06/12 07:31:03;;;;;;;12.07;3.00;;;;;;;;;;5034658;28;20159;-76
2022/06/12 07:33:29;;;;;;;11.63;3.20;;;;;;;;;;5039702;28;20542;-76
2022/06/12 07:35:55;;;;;;;15.35;3.55;;;;;;;;;;5045435;28;20044;-76
2022/06/12 07:38:22;;;;;;;14.73;3.20;;;;;;;;;;5043092;28;20051;-75
2022/06/12 07:40:51;;;;;;;11.85;3.53;;;;;;;;;;5034288;28;20081;-75
2022/06/12 07:43:17;;;;;;;10.00;3.10;;;;;;;;;;5038047;28;20076;-75
2022/06/12 07:45:43;;;;;;;13.38;3.65;;;;;;;;;;5036003;28;20038;-76
2022/06/12 07:48:10;;;;;;;12.82;3.33;;;;;;;;;;5042039;28;20033;-75
2022/06/12 07:50:37;;;;;;;12.00;3.42;;;;;;;;;;5034813;28;20059;-76
2022/06/12 07:53:04;;;;;;;17.50;3.50;;;;;;;;;;5036519;28;20025;-75
2022/06/12 07:55:30;;;;;;;10.93;3.30;;;;;;;;;;5034801;28;20041;-76
2022/06/12 07:57:56;;;;;;;13.45;3.72;;;;;;;;;;5034499;28;20029;-76
2022/06/12 08:00:23;;;;;;;11.13;3.72;;;;;;;;;;5030827;28;20171;-75
2022/06/12 08:02:49;;;;;;;13.57;2.70;;;;;;;;;;5039423;28;20039;-75
2022/06/12 08:05:17;;;;;;;15.77;3.40;;;;;;;;;;5036116;28;20411;-74
2022/06/12 08:07:43;;;;;;;11.85;3.38;;;;;;;;;;5024433;28;20033;-75
2022/06/12 08:10:10;;;;;;;12.00;3.30;;;;;;;;;;5039012;28;20021;-75
2022/06/12 08:12:37;;;;;;;11.35;3.03;;;;;;;;;;5037083;28;20025;-76
2022/06/12 08:15:04;;;;;;;12.07;3.50;;;;;;;;;;5035598;28;20039;-76
2022/06/12 08:17:31;;;;;;;10.43;2.90;;;;;;;;;;5034898;28;20688;-76
2022/06/12 08:22:41;;;;;;;11.50;2.72;;;;;;;;;;5028094;28;20126;-74
2022/06/12 08:25:07;;;;;;;12.10;3.25;;;;;;;;;;5044676;28;20028;-76
2022/06/12 08:27:33;;;;;;;12.40;3.30;;;;;;;;;;5033420;28;20038;-75
2022/06/12 08:29:59;;;;;;;14.43;2.80;;;;;;;;;;5029457;28;20021;-75
2022/06/12 08:32:26;;;;;;;11.15;2.80;;;;;;;;;;5040333;28;20130;-75
2022/06/12 08:34:58;;;;;;;9.52;3.17;;;;;;;;;;5051657;28;20097;-76
2022/06/12 08:37:28;;;;;;;10.07;2.78;;;;;;;;;;5025957;28;20034;-75
2022/06/12 08:39:54;;;;;;;13.13;2.50;;;;;;;;;;5046907;28;20021;-75
2022/06/12 08:42:25;;;;;;;13.80;3.15;;;;;;;;;;5030711;28;20099;-75
2022/06/12 08:45:10;;;;;;;11.57;2.67;;;;;;;;;;5032252;28;20036;-75
2022/06/12 08:47:44;;;;;;;12.98;3.00;;;;;;;;;;5033244;28;20445;-75
2022/06/12 08:50:16;;;;;;;6.00;2.17;;;;;;;;;;5036126;28;20072;-75
2022/06/12 08:52:56;;;;;;;9.30;2.78;;;;;;;;;;5028338;28;20029;-75
2022/06/12 08:55:26;;;;;;;9.93;2.75;;;;;;;;;;5033493;28;20087;-75
2022/06/12 08:57:58;;;;;;;10.75;2.55;;;;;;;;;;5036734;28;20084;-76
2022/06/12 09:00:30;;;;;;;10.90;2.70;;;;;;;;;;5035191;28;20021;-75
2022/06/12 09:02:56;;;;;;;8.77;2.40;;;;;;;;;;5033231;28;20112;-76
2022/06/12 09:05:26;;;;;;;6.88;2.30;;;;;;;;;;5038150;28;20033;-75
2022/06/12 09:08:07;;;;;;;11.07;2.65;;;;;;;;;;5030484;28;20045;-75
2022/06/12 09:10:37;;;;;;;10.80;2.70;;;;;;;;;;5029977;28;20025;-75
2022/06/12 09:13:03;;;;;;;;;;;;;;;;;;5029550;28;20483;-76
2022/06/12 09:15:37;;;;;;;9.18;2.72;;;;;;;;;;5026654;28;19908;-75
2022/06/12 09:18:09;;;;;;;12.55;2.92;;;;;;;;;;5019278;28;20033;-77
2022/06/12 09:20:43;;;;;;;7.90;2.10;;;;;;;;;;5027852;28;20124;-77
2022/06/12 09:23:15;;;;;;;7.65;2.30;;;;;;;;;;5028346;28;20063;-78
2022/06/12 09:25:46;;;;;;;9.23;2.70;;;;;;;;;;5022226;28;20774;-77
2022/06/12 09:28:32;;;;;;;12.70;2.15;;;;;;;;;;5032465;28;20052;-75
2022/06/12 09:31:14;;;;;;;8.85;2.47;;;;;;;;;;5026058;28;20025;-77
2022/06/12 09:33:47;;;;;;;8.52;2.20;;;;;;;;;;5032369;28;20071;-76
2022/06/12 09:36:19;;;;;;;10.55;2.90;;;;;;;;;;5035197;28;20025;-78
2022/06/12 09:39:03;;;;;;;8.38;2.55;;;;;;;;;;5037238;28;20035;-77
2022/06/12 09:41:47;;;;;;;9.48;2.45;;;;;;;;;;5047170;28;20084;-78
2022/06/12 09:44:19;;;;;;;11.00;2.28;;;;;;;;;;5044141;28;20111;-76
2022/06/12 09:47:04;;;;;;;8.98;2.15;;;;;;;;;;5038025;28;20044;-76
2022/06/12 09:49:49;;;;;;;6.50;2.25;;;;;;;;;;5037201;28;20110;-77
2022/06/12 09:52:24;;;;;;;7.78;2.20;;;;;;;;;;5050494;28;20033;-75
2022/06/12 09:55:02;;;;;;;12.52;2.72;;;;;;;;;;5040946;28;20025;-72
2022/06/12 09:57:43;;;;;;;12.07;2.70;;;;;;;;;;5031456;28;20060;-78
2022/06/12 10:00:13;;;;;;;9.32;2.38;;;;;;;;;;5032485;28;20034;-75
2022/06/12 10:02:39;;;;;;;8.98;2.10;;;;;;;;;;5034078;28;20033;-75
2022/06/12 10:05:17;;;;;;;10.52;2.50;;;;;;;;;;5037429;28;20087;-79
2022/06/12 10:07:48;;;;;;;7.93;2.03;;;;;;;;;;5035974;28;20037;-74
2022/06/12 10:10:35;;;;;;;8.05;2.50;;;;;;;;;;5041865;28;20028;-73
2022/06/12 10:13:05;;;;;;;9.02;2.00;;;;;;;;;;5036949;28;20033;-73
2022/06/12 10:15:33;;;;;;;12.18;2.78;;;;;;;;;;5036655;28;20487;-73
2022/06/12 10:18:03;;;;;;;7.30;1.88;;;;;;;;;;5036006;28;20034;-73
2022/06/12 10:20:32;;;;;;;12.57;2.20;;;;;;;;;;5035501;28;20071;-76
2022/06/12 10:22:59;;;;;;;13.40;2.47;;;;;;;;;;5035358;28;20090;-75
2022/06/12 10:25:27;;;;;;;10.43;3.17;;;;;;;;;;5039644;28;20514;-74
2022/06/12 10:28:14;;;;;;;8.82;2.13;;;;;;;;;;5030854;28;20486;-75
2022/06/12 10:30:42;;;;;;;10.13;2.60;;;;;;;;;;5033483;28;20033;-75
2022/06/12 10:33:18;;;;;;;8.38;2.40;;;;;;;;;;5024253;28;20033;-74
2022/06/12 10:35:49;;;;;;;11.00;2.35;;;;;;;;;;5033485;28;20475;-73
2022/06/12 10:38:16;;;;;;;8.88;2.42;;;;;;;;;;5033342;28;20124;-75
2022/06/12 10:40:52;;;;;;;8.48;2.22;;;;;;;;;;5031647;28;20046;-76
2022/06/12 10:43:33;;;;;;;15.65;2.30;;;;;;;;;;5036109;28;20029;-75
2022/06/12 10:46:01;;;;;;;8.77;2.58;;;;;;;;;;5036223;28;20188;-75
2022/06/12 10:48:30;;;;;;;8.40;2.00;;;;;;;;;;5041322;28;20044;-75
2022/06/12 10:51:00;;;;;;;6.85;1.98;;;;;;;;;;5026978;28;20056;-75
2022/06/12 10:53:29;;;;;;;12.10;2.60;;;;;;;;;;5028351;28;20132;-77
2022/06/12 10:56:01;;;;;;;7.55;2.85;;;;;;;;;;5030672;28;20029;-77
2022/06/12 10:58:45;;;;;;;7.38;1.92;;;;;;;;;;5033793;28;20025;-76
2022/06/12 11:01:31;;;;;;;8.65;2.10;;;;;;;;;;5027689;28;20487;-75
2022/06/12 11:04:16;;;;;;;9.23;2.20;;;;;;;;;;5022906;28;20044;-76
2022/06/12 11:07:08;;;;;;;11.80;2.20;;;;;;;;;;5037497;28;20095;-76
2022/06/12 11:09:44;;;;;;;6.43;2.00;;;;;;;;;;5008939;28;20036;-78
2022/06/12 11:12:26;;;;;;;7.47;1.92;;;;;;;;;;5032593;28;20021;-75
2022/06/12 11:14:55;;;;;;;5.57;1.75;;;;;;;;;;5045437;28;20024;-76
2022/06/12 11:17:36;;;;;;;10.07;2.08;;;;;;;;;;5037363;28;20032;-78
2022/06/12 11:20:05;;;;;;;8.55;1.70;;;;;;;;;;5024570;28;20470;-78
2022/06/12 11:22:40;;;;;;;6.20;1.80;;;;;;;;;;5030758;28;20052;-74
2022/06/12 11:25:09;;;;;;;7.13;2.45;;;;;;;;;;5044994;28;20055;-76
2022/06/12 11:27:38;;;;;;;6.68;1.55;;;;;;;;;;5039617;28;20021;-76
2022/06/12 11:30:10;;;;;;;6.72;1.83;;;;;;;;;;5026280;28;20030;-76
2022/06/12 11:32:54;;;;;;;9.55;1.77;;;;;;;;;;5032315;28;20037;-77
2022/06/12 11:35:34;;;;;;;7.07;1.80;;;;;;;;;;5030726;28;20060;-76
2022/06/12 11:38:03;;;;;;;11.27;1.97;;;;;;;;;;5030273;28;20041;-78
2022/06/12 11:40:48;;;;;;;4.18;1.58;;;;;;;;;;5026844;28;20279;-75
2022/06/12 11:43:18;;;;;;;20.73;2.17;;;;;;;;;;5027521;28;20470;-76
2022/06/12 11:45:49;;;;;;;13.25;2.22;;;;;;;;;;5011036;28;20100;-77
2022/06/12 11:48:34;;;;;;;6.22;1.65;;;;;;;;;;5013087;28;20038;-77
2022/06/12 11:51:03;;;;;;;4.82;1.60;;;;;;;;;;5027460;28;20046;-75
2022/06/12 11:53:49;;;;;;;7.60;2.00;;;;;;;;;;5031648;28;20029;-75
2022/06/12 11:56:34;;;;;;;8.85;1.67;;;;;;;;;;5031611;28;20121;-76
2022/06/12 11:59:19;;;;;;;11.30;1.85;;;;;;;;;;5032792;28;20479;-76
2022/06/12 12:01:45;;;;;;;12.23;2.67;;;;;;;;;;5032444;28;20037;-75
2022/06/12 12:04:11;;;;;;;11.68;2.53;;;;;;;;;;5031494;28;20087;-76
2022/06/12 12:06:40;;;;;;;13.45;2.50;;;;;;;;;;5032647;28;20022;-77
2022/06/12 12:09:09;;;;;;;10.50;2.30;;;;;;;;;;5031010;28;20025;-77
2022/06/12 12:11:41;;;;;;;11.63;1.92;;;;;;;;;;5032628;28;20028;-77
2022/06/12 12:14:08;;;;;;;9.90;1.95;;;;;;;;;;5033082;28;20112;-76
2022/06/12 12:16:53;;;;;;;9.13;2.20;;;;;;;;;;5032731;28;20029;-75
2022/06/12 12:19:25;;;;;;;10.50;2.00;;;;;;;;;;5032852;28;20487;-76
2022/06/12 12:22:04;;;;;;;11.55;2.15;;;;;;;;;;5020846;28;20461;-77
2022/06/12 12:24:34;;;;;;;6.43;1.80;;;;;;;;;;5022447;28;20446;-76
2022/06/12 12:27:03;;;;;;;7.25;2.05;;;;;;;;;;5033311;28;20017;-76
2022/06/12 12:29:33;;;;;;;6.72;1.77;;;;;;;;;;5015843;28;20037;-76
2022/06/12 12:31:59;;;;;;;6.13;1.55;;;;;;;;;;5028217;28;20025;-77
2022/06/12 12:34:26;;;;;;;6.95;1.33;;;;;;;;;;5032303;28;20487;-76
2022/06/12 12:42:37;;;;;;;6.22;1.58;;;;;;;;;;5031266;28;20176;-76
2022/06/12 12:45:28;;;;;;;3.83;1.38;;;;;;;;;;5026611;28;20537;-76
2022/06/12 12:48:08;;;;;;;7.45;1.48;;;;;;;;;;5013205;28;20033;-75
2022/06/12 12:50:45;;;;;;;6.47;1.85;;;;;;;;;;5013291;28;20108;-76
2022/06/12 12:53:20;;;;;;;6.28;2.00;;;;;;;;;;5012861;28;20038;-76
2022/06/12 12:55:56;;;;;;;8.07;1.67;;;;;;;;;;5026068;28;20094;-77
2022/06/12 12:58:24;;;;;;;8.07;2.08;;;;;;;;;;5023091;28;20029;-75
2022/06/12 13:01:01;;;;;;;7.88;1.80;;;;;;;;;;5027558;28;20159;-74
2022/06/12 13:03:28;;;;;;;7.90;1.85;;;;;;;;;;5028159;28;20358;-74
2022/06/12 13:06:13;;;;;;;7.78;1.95;;;;;;;;;;5029195;28;20144;-74
2022/06/12 13:08:42;;;;;;;5.68;2.13;;;;;;;;;;5026670;28;20056;-74
2022/06/12 13:11:13;;;;;;;10.57;2.28;;;;;;;;;;5028953;28;20036;-76
2022/06/12 13:13:45;;;;;;;15.40;3.88;;;;;;;;;;5022962;28;20064;-79
2022/06/12 13:16:20;;;;;;;10.63;2.15;;;;;;;;;;5024630;28;20033;-75
2022/06/12 13:18:55;;;;;;;9.55;2.47;;;;;;;;;;5026835;28;20030;-75
2022/06/12 13:21:21;;;;;;;8.13;2.13;;;;;;;;;;5028124;28;20441;-76
2022/06/12 13:23:53;;;;;;;9.52;2.10;;;;;;;;;;5023850;28;20104;-74
2022/06/12 13:26:20;;;;;;;7.40;1.75;;;;;;;;;;5018009;28;20053;-76
2022/06/12 13:29:12;;;;;;;8.82;2.42;;;;;;;;;;5027839;28;20112;-77
2022/06/12 13:31:38;;;;;;;8.07;2.40;;;;;;;;;;5022951;28;20050;-77
2022/06/12 13:34:04;;;;;;;8.07;2.28;;;;;;;;;;5022056;28;20040;-75
2022/06/12 13:36:36;;;;;;;10.95;2.45;;;;;;;;;;5018425;28;20033;-75
2022/06/12 13:39:05;;;;;;;7.40;2.22;;;;;;;;;;5022159;28;20033;-77
2022/06/12 13:41:31;;;;;;;9.48;2.00;;;;;;;;;;5021747;28;20084;-78
2022/06/12 13:43:57;;;;;;;10.80;2.92;;;;;;;;;;5024783;28;20434;-74
2022/06/12 13:46:23;;;;;;;6.53;2.30;;;;;;;;;;5022762;28;20043;-75
2022/06/12 13:48:50;;;;;;;8.82;2.72;;;;;;;;;;5023704;28;20483;-75
2022/06/12 13:51:22;;;;;;;8.80;2.58;;;;;;;;;;5024378;28;20077;-76
2022/06/12 13:53:49;;;;;;;13.68;3.17;;;;;;;;;;5028248;28;20037;-76
2022/06/12 13:56:17;;;;;;;10.88;2.75;;;;;;;;;;5019692;28;20099;-76
2022/06/12 13:58:49;;;;;;;12.75;3.13;;;;;;;;;;5028194;28;20479;-75
2022/06/12 14:01:18;;;;;;;9.70;2.78;;;;;;;;;;5018051;28;20200;-74
2022/06/12 14:03:49;;;;;;;12.27;2.88;;;;;;;;;;5025037;28;20483;-75
2022/06/12 14:06:17;;;;;;;12.50;3.20;;;;;;;;;;5023855;28;20025;-75
2022/06/12 14:08:43;;;;;;;10.93;2.80;;;;;;;;;;5024128;28;20152;-75
2022/06/12 14:11:16;;;;;;;9.07;2.40;;;;;;;;;;5023806;28;20025;-73
2022/06/12 14:13:45;;;;;;;11.80;3.08;;;;;;;;;;5027282;28;20035;-73
2022/06/12 14:16:15;;;;;;;10.90;2.67;;;;;;;;;;5016267;28;20029;-72
2022/06/12 14:18:52;;;;;;;8.85;2.58;;;;;;;;;;5034605;28;20044;-74
2022/06/12 14:21:23;;;;;;;12.13;2.80;;;;;;;;;;5028764;28;20029;-73
2022/06/12 14:23:50;;;;;;;10.82;2.90;;;;;;;;;;5024974;28;20037;-74
2022/06/12 14:26:23;;;;;;;15.85;3.83;;;;;;;;;;5025118;28;20037;-73
2022/06/12 14:28:49;;;;;;;13.60;3.85;;;;;;;;;;5027080;28;20030;-73
2022/06/12 14:31:18;;;;;;;16.25;3.13;;;;;;;;;;5022269;28;20451;-74
2022/06/12 14:33:44;;;;;;;9.70;3.00;;;;;;;;;;5029644;28;20032;-71
2022/06/12 14:36:11;;;;;;;12.38;3.33;;;;;;;;;;5024845;28;20032;-73
2022/06/12 14:38:39;;;;;;;10.10;3.03;;;;;;;;;;5035758;28;20120;-74
2022/06/12 14:41:16;;;;;;;7.93;2.88;;;;;;;;;;5024687;28;20112;-73
2022/06/12 14:43:42;;;;;;;12.77;3.00;;;;;;;;;;5048477;28;20044;-74
2022/06/12 14:46:12;;;;;;;12.23;3.50;;;;;;;;;;5019426;28;20030;-73
2022/06/12 14:48:38;;;;;;;10.63;3.08;;;;;;;;;;5039168;28;20021;-73
2022/06/12 14:51:07;;;;;;;12.60;3.08;;;;;;;;;;5030657;28;20038;-74
2022/06/12 14:53:34;;;;;;;13.10;3.15;;;;;;;;;;5027183;28;20037;-72
2022/06/12 14:56:04;;;;;;;13.60;2.97;;;;;;;;;;5032679;28;20107;-73
2022/06/12 14:58:32;;;;;;;10.95;2.88;;;;;;;;;;5026897;28;20038;-73
2022/06/12 15:01:03;;;;;;;11.68;3.35;;;;;;;;;;5025283;28;20165;-73
2022/06/12 15:03:32;;;;;;;18.58;3.75;;;;;;;;;;5040341;28;20033;-73
2022/06/12 15:05:58;;;;;;;13.27;3.40;;;;;;;;;;5033037;28;20029;-73
2022/06/12 15:08:25;;;;;;;14.35;3.42;;;;;;;;;;5030729;28;20088;-73
2022/06/12 15:10:52;;;;;;;14.30;3.65;;;;;;;;;;5029346;28;20025;-74
2022/06/12 15:13:20;;;;;;;13.38;3.70;;;;;;;;;;5025233;28;20067;-72